createdAt,value
2022-11-24T00:01:21.062Z,8.07
2022-11-24T00:03:53.826Z,9.00
2022-11-24T00:06:20.468Z,9.60
2022-11-24T00:08:47.517Z,9.38
2022-11-24T00:11:23.052Z,8.52
2022-11-24T00:13:49.740Z,9.18
2022-11-24T00:16:24.508Z,8.18
2022-11-24T00:18:52.943Z,9.10
2022-11-24T00:21:20.392Z,10.20
2022-11-24T00:23:47.991Z,9.60
2022-11-24T00:26:17.728Z,9.13
2022-11-24T00:28:46.297Z,8.88
2022-11-24T00:31:18.996Z,8.75
2022-11-24T00:33:46.966Z,8.55
2022-11-24T00:36:14.294Z,9.30
2022-11-24T00:38:40.832Z,8.48
2022-11-24T00:41:07.560Z,8.85
2022-11-24T00:43:34.115Z,9.10
2022-11-24T00:46:00.857Z,8.95
2022-11-24T00:48:28.834Z,9.02
2022-11-24T00:51:07.195Z,8.93
2022-11-24T00:53:34.146Z,8.98
2022-11-24T00:56:01.034Z,8.32
2022-11-24T00:58:27.545Z,8.90
2022-11-24T01:00:54.095Z,7.88
2022-11-24T01:03:21.223Z,8.20
2022-11-24T01:05:47.864Z,8.90
2022-11-24T01:08:14.854Z,7.72
2022-11-24T01:10:41.285Z,7.30
2022-11-24T01:13:07.701Z,7.88
2022-11-24T01:15:38.032Z,7.28
2022-11-24T01:18:05.220Z,6.82
2022-11-24T01:20:32.393Z,6.13
2022-11-24T01:22:58.937Z,6.18
2022-11-24T01:25:25.496Z,6.32
2022-11-24T01:27:51.971Z,6.00
2022-11-24T01:30:18.617Z,5.82
2022-11-24T01:32:45.061Z,5.25
2022-11-24T01:35:11.506Z,5.13
2022-11-24T01:37:37.930Z,4.95
2022-11-24T01:40:04.841Z,5.03
2022-11-24T01:42:48.495Z,4.80
2022-11-24T01:45:33.928Z,4.70
2022-11-24T01:48:04.581Z,5.15
2022-11-24T01:50:32.881Z,4.53
2022-11-24T01:52:59.786Z,5.40
2022-11-24T01:55:32.503Z,5.47
2022-11-24T01:58:13.069Z,4.28
2022-11-24T02:00:42.537Z,4.75
2022-11-24T02:03:09.823Z,4.80
2022-11-24T02:05:45.442Z,4.63
2022-11-24T02:08:33.524Z,4.38
2022-11-24T02:11:05.580Z,4.93
2022-11-24T02:13:35.458Z,4.25
2022-11-24T02:16:03.123Z,3.88
2022-11-24T02:18:29.764Z,4.57
2022-11-24T02:20:56.795Z,3.90
2022-11-24T02:23:31.569Z,4.53
2022-11-24T02:26:18.186Z,4.38
2022-11-24T02:28:46.111Z,4.32
2022-11-24T02:31:13.555Z,5.00
2022-11-24T02:33:40.819Z,4.40
2022-11-24T02:36:07.584Z,4.47
2022-11-24T02:38:35.464Z,3.90
2022-11-24T02:41:16.858Z,4.30
2022-11-24T02:43:48.344Z,4.15
2022-11-24T02:46:14.855Z,4.30
2022-11-24T02:48:41.426Z,4.28
2022-11-24T02:51:07.950Z,4.10
2022-11-24T02:53:34.565Z,4.57
2022-11-24T02:56:01.107Z,4.70
2022-11-24T02:58:28.832Z,4.20
2022-11-24T03:00:57.300Z,4.93
2022-11-24T03:03:24.529Z,5.00
2022-11-24T03:05:51.080Z,4.53
2022-11-24T03:08:17.642Z,4.20
2022-11-24T03:10:44.557Z,4.05
2022-11-24T03:13:13.130Z,3.45
2022-11-24T03:15:39.790Z,3.42
2022-11-24T03:18:06.367Z,3.97
2022-11-24T03:20:33.227Z,3.55
2022-11-24T03:22:59.676Z,3.20
2022-11-24T03:25:26.170Z,3.75
2022-11-24T03:27:52.858Z,3.40
2022-11-24T03:30:19.355Z,3.17
2022-11-24T03:32:45.906Z,3.25
2022-11-24T03:35:12.440Z,3.03
2022-11-24T03:37:38.933Z,3.63
2022-11-24T03:40:06.108Z,3.90
2022-11-24T03:42:32.587Z,4.05
2022-11-24T03:45:04.192Z,3.80
2022-11-24T03:47:43.391Z,3.67
2022-11-24T03:50:09.928Z,4.13
2022-11-24T03:52:36.420Z,3.33
2022-11-24T03:55:02.945Z,3.20
2022-11-24T03:57:29.447Z,3.25
2022-11-24T03:59:55.903Z,3.53
2022-11-24T04:02:22.500Z,3.40
2022-11-24T04:04:50.740Z,5.18
2022-11-24T04:07:17.347Z,3.65
2022-11-24T04:09:45.046Z,3.60
2022-11-24T04:12:30.231Z,3.70
2022-11-24T04:14:56.696Z,3.70
2022-11-24T04:17:23.240Z,3.65
2022-11-24T04:19:49.746Z,3.90
2022-11-24T04:22:16.219Z,3.67
2022-11-24T04:24:42.699Z,3.33
2022-11-24T04:27:09.158Z,3.50
2022-11-24T04:29:35.700Z,3.10
2022-11-24T04:32:02.342Z,3.47
2022-11-24T04:34:28.782Z,3.03
2022-11-24T04:36:57.921Z,3.28
2022-11-24T04:39:28.882Z,3.33
2022-11-24T04:41:55.653Z,3.53
2022-11-24T04:44:22.280Z,3.40
2022-11-24T04:46:48.782Z,3.20
2022-11-24T04:49:15.433Z,3.33
2022-11-24T04:51:42.128Z,4.97
2022-11-24T04:54:10.960Z,3.63
2022-11-24T04:56:37.501Z,4.13
2022-11-24T04:59:08.155Z,3.53
2022-11-24T05:01:35.604Z,3.60
2022-11-24T05:04:02.359Z,3.33
2022-11-24T05:06:29.089Z,3.53
2022-11-24T05:08:55.726Z,3.67
2022-11-24T05:11:22.274Z,4.00
2022-11-24T05:13:48.824Z,4.30
2022-11-24T05:16:15.861Z,4.25
2022-11-24T05:18:42.452Z,4.07
2022-11-24T05:21:08.882Z,4.47
2022-11-24T05:23:35.788Z,3.42
2022-11-24T05:26:02.712Z,4.00
2022-11-24T05:28:29.202Z,3.47
2022-11-24T05:30:59.965Z,3.45
2022-11-24T05:33:28.520Z,3.55
2022-11-24T05:35:55.865Z,3.78
2022-11-24T05:38:23.746Z,3.80
2022-11-24T05:40:50.296Z,3.40
2022-11-24T05:43:17.126Z,3.53
2022-11-24T05:45:44.789Z,3.45
2022-11-24T05:48:14.508Z,3.72
2022-11-24T05:50:41.154Z,3.05
2022-11-24T05:53:12.923Z,3.45
2022-11-24T05:55:40.548Z,3.33
2022-11-24T05:58:08.760Z,3.60
2022-11-24T06:00:36.241Z,4.00
2022-11-24T06:03:03.658Z,3.30
2022-11-24T06:05:30.653Z,3.58
2022-11-24T06:07:59.460Z,3.08
2022-11-24T06:10:26.069Z,3.30
2022-11-24T06:12:53.158Z,3.38
2022-11-24T06:15:19.900Z,3.05
2022-11-24T06:17:53.703Z,3.05
2022-11-24T06:20:20.123Z,3.20
2022-11-24T06:22:46.569Z,2.72
2022-11-24T06:25:13.009Z,3.15
2022-11-24T06:27:39.510Z,3.10
2022-11-24T06:30:06.749Z,3.38
2022-11-24T06:32:33.371Z,2.92
2022-11-24T06:34:59.825Z,3.30
2022-11-24T06:37:26.339Z,3.70
2022-11-24T06:39:52.974Z,3.78
2022-11-24T06:42:19.710Z,3.10
2022-11-24T06:44:47.435Z,3.45
2022-11-24T06:47:15.559Z,3.85
2022-11-24T06:49:41.985Z,3.33
2022-11-24T06:52:08.596Z,3.30
2022-11-24T06:54:35.166Z,2.88
2022-11-24T06:57:01.862Z,3.33
2022-11-24T06:59:28.532Z,3.30
2022-11-24T07:01:55.011Z,3.25
2022-11-24T07:04:21.555Z,3.35
2022-11-24T07:06:48.013Z,3.45
2022-11-24T07:09:16.660Z,3.45
2022-11-24T07:11:43.163Z,3.90
2022-11-24T07:14:10.010Z,3.35
2022-11-24T07:16:37.029Z,3.63
2022-11-24T07:19:03.746Z,3.20
2022-11-24T07:21:30.782Z,3.13
2022-11-24T07:23:58.125Z,3.28
2022-11-24T07:26:25.413Z,3.47
2022-11-24T07:28:55.436Z,3.67
2022-11-24T07:31:26.293Z,3.75
2022-11-24T07:33:54.841Z,3.65
2022-11-24T07:36:22.752Z,3.40
2022-11-24T07:38:49.481Z,3.70
2022-11-24T07:41:19.427Z,3.42
2022-11-24T07:43:46.719Z,3.15
2022-11-24T07:46:15.329Z,3.17
2022-11-24T07:48:42.322Z,3.00
2022-11-24T07:51:09.679Z,3.15
2022-11-24T07:53:37.174Z,2.38
2022-11-24T07:56:06.109Z,2.80
2022-11-24T07:58:35.615Z,2.80
2022-11-24T08:01:13.505Z,2.53
2022-11-24T08:03:41.154Z,2.40
2022-11-24T08:06:23.972Z,2.65
2022-11-24T08:11:18.274Z,2.58
2022-11-24T08:13:45.064Z,2.88
2022-11-24T08:16:17.371Z,2.90
2022-11-24T08:18:48.704Z,2.92
2022-11-24T08:21:15.360Z,2.50
2022-11-24T08:23:42.046Z,2.15
2022-11-24T08:26:16.019Z,2.65
2022-11-24T08:28:43.192Z,2.65
2022-11-24T08:31:15.119Z,2.03
2022-11-24T08:33:42.557Z,2.08
2022-11-24T08:36:11.925Z,1.92
2022-11-24T08:38:39.230Z,1.95
2022-11-24T08:41:08.935Z,2.10
2022-11-24T08:43:35.865Z,2.45
2022-11-24T08:46:11.370Z,1.73
2022-11-24T08:48:39.075Z,1.50
2022-11-24T08:51:14.352Z,1.92
2022-11-24T08:53:42.050Z,1.70
2022-11-24T08:56:10.044Z,1.70
2022-11-24T08:58:37.519Z,2.13
2022-11-24T09:01:09.922Z,1.40
2022-11-24T09:03:37.754Z,1.77
2022-11-24T09:06:05.322Z,1.65
2022-11-24T09:08:32.639Z,1.58
2022-11-24T09:11:00.771Z,1.73
2022-11-24T09:13:27.373Z,1.50
2022-11-24T09:15:53.801Z,1.58
2022-11-24T09:18:20.293Z,2.45
2022-11-24T09:20:46.763Z,1.70
2022-11-24T09:23:13.435Z,2.05
2022-11-24T09:25:39.972Z,1.20
2022-11-24T09:28:06.391Z,1.65
2022-11-24T09:30:32.881Z,1.52
2022-11-24T09:32:59.342Z,1.58
2022-11-24T09:35:25.870Z,1.45
2022-11-24T09:37:54.383Z,1.80
2022-11-24T09:40:22.652Z,1.65
2022-11-24T09:43:11.236Z,1.73
2022-11-24T09:46:06.120Z,1.80
2022-11-24T09:48:40.175Z,1.45
2022-11-24T09:51:12.112Z,1.67
2022-11-24T09:53:44.723Z,1.50
2022-11-24T09:56:21.348Z,1.20
2022-11-24T09:59:05.764Z,1.40
2022-11-24T10:01:37.572Z,1.40
2022-11-24T10:04:10.986Z,1.70
2022-11-24T10:07:05.345Z,1.50
2022-11-24T10:09:53.421Z,1.42
2022-11-24T10:12:28.582Z,1.83
2022-11-24T10:15:16.138Z,1.27
2022-11-24T10:17:56.520Z,1.13
2022-11-24T10:20:50.919Z,1.55
2022-11-24T10:23:27.824Z,1.65
2022-11-24T10:25:59.433Z,1.60
2022-11-24T10:28:51.414Z,1.33
2022-11-24T10:31:29.393Z,1.30
2022-11-24T10:34:01.494Z,1.55
2022-11-24T10:36:47.053Z,1.33
2022-11-24T10:39:48.293Z,1.25
2022-11-24T10:42:26.953Z,1.33
2022-11-24T10:45:12.152Z,1.70
2022-11-24T10:47:39.881Z,1.60
2022-11-24T10:50:23.438Z,2.05
2022-11-24T10:53:05.527Z,1.48
2022-11-24T10:55:56.471Z,1.52
2022-11-24T10:58:24.181Z,1.45
2022-11-24T11:00:50.969Z,2.80
2022-11-24T11:03:23.296Z,1.48
2022-11-24T11:06:00.404Z,1.35
2022-11-24T11:08:31.631Z,1.50
2022-11-24T11:11:16.746Z,1.52
2022-11-24T11:13:58.237Z,1.50
2022-11-24T11:16:40.462Z,1.50
2022-11-24T11:19:50.669Z,1.70
2022-11-24T11:22:31.539Z,1.23
2022-11-24T11:25:19.338Z,3.40
2022-11-24T11:27:46.138Z,1.65
2022-11-24T11:35:48.475Z,1.40
2022-11-24T11:38:15.227Z,1.83
2022-11-24T11:40:43.705Z,2.60
2022-11-24T11:43:22.191Z,1.50
2022-11-24T11:46:09.418Z,1.40
2022-11-24T11:48:43.140Z,1.90
2022-11-24T11:51:25.670Z,1.20
2022-11-24T11:54:14.964Z,1.40
2022-11-24T11:56:47.603Z,1.25
2022-11-24T11:59:32.885Z,1.33
2022-11-24T12:02:05.014Z,1.00
2022-11-24T12:04:34.521Z,1.48
2022-11-24T12:07:32.384Z,1.80
2022-11-24T12:10:24.690Z,1.35
2022-11-24T12:12:59.208Z,1.52
2022-11-24T12:15:35.570Z,1.33
2022-11-24T12:21:29.749Z,1.50
2022-11-24T12:24:21.885Z,2.15
2022-11-24T12:26:55.548Z,1.73
2022-11-24T12:29:50.954Z,2.10
2022-11-24T12:32:39.170Z,1.70
2022-11-24T12:35:22.235Z,1.85
2022-11-24T12:37:57.940Z,1.70
2022-11-24T12:40:40.821Z,1.77
2022-11-24T12:43:34.098Z,1.50
2022-11-24T12:51:35.309Z,1.67
2022-11-24T12:54:04.703Z,1.75
2022-11-24T12:56:41.152Z,2.10
2022-11-24T12:59:25.290Z,1.40
2022-11-24T13:01:57.614Z,2.20
2022-11-24T13:04:43.137Z,1.50
2022-11-24T13:07:14.442Z,1.52
2022-11-24T13:10:40.073Z,1.45
2022-11-24T13:13:11.388Z,2.08
2022-11-24T13:16:13.121Z,2.30
2022-11-24T13:19:00.613Z,1.73
2022-11-24T13:21:52.921Z,1.88
2022-11-24T13:24:25.752Z,1.38
2022-11-24T13:27:12.753Z,1.20
2022-11-24T13:29:41.099Z,1.58
2022-11-24T13:32:11.625Z,1.55
2022-11-24T13:34:45.488Z,1.40
2022-11-24T13:37:34.985Z,2.15
2022-11-24T13:40:37.085Z,1.23
2022-11-24T13:43:03.536Z,1.45
2022-11-24T13:45:39.647Z,1.20
2022-11-24T13:48:22.842Z,1.45
2022-11-24T13:51:01.563Z,1.95
2022-11-24T13:53:34.553Z,1.33
2022-11-24T13:56:30.604Z,1.50
2022-11-24T13:59:00.416Z,1.67
2022-11-24T14:01:36.674Z,1.48
2022-11-24T14:04:33.109Z,1.50
2022-11-24T14:07:09.385Z,1.17
2022-11-24T14:09:50.366Z,1.45
2022-11-24T14:12:22.097Z,1.45
2022-11-24T14:14:57.040Z,1.20
2022-11-24T14:17:28.793Z,1.52
2022-11-24T14:19:57.465Z,1.20
2022-11-24T14:22:44.250Z,1.35
2022-11-24T14:25:20.416Z,1.48
2022-11-24T14:27:47.145Z,1.80
2022-11-24T14:30:13.740Z,1.40
2022-11-24T14:32:42.374Z,1.83
2022-11-24T14:35:22.893Z,1.50
2022-11-24T14:37:49.557Z,1.40
2022-11-24T14:40:48.816Z,1.50
2022-11-24T14:43:29.547Z,2.08
2022-11-24T14:45:59.450Z,1.50
2022-11-24T14:48:29.404Z,1.80
2022-11-24T14:51:13.268Z,1.75
2022-11-24T14:53:46.277Z,1.80
2022-11-24T14:56:35.696Z,2.30
2022-11-24T14:59:02.913Z,1.98
2022-11-24T15:01:36.422Z,2.88
2022-11-24T15:07:29.062Z,2.85
2022-11-24T15:09:58.661Z,2.70
2022-11-24T15:12:38.009Z,1.90
2022-11-24T15:15:10.023Z,1.92
2022-11-24T15:17:57.387Z,1.92
2022-11-24T15:20:33.011Z,2.40
2022-11-24T15:23:25.340Z,1.77
2022-11-24T15:25:55.852Z,2.22
2022-11-24T15:28:28.019Z,1.98
2022-11-24T15:31:18.804Z,2.55
2022-11-24T15:33:47.501Z,2.40
2022-11-24T15:36:18.724Z,2.40
2022-11-24T15:38:45.266Z,2.13
2022-11-24T15:41:34.983Z,2.88
2022-11-24T15:44:01.865Z,4.05
2022-11-24T15:46:30.655Z,2.40
2022-11-24T15:48:57.720Z,2.25
2022-11-24T15:51:27.678Z,2.78
2022-11-24T15:54:00.680Z,3.00
2022-11-24T15:56:36.529Z,2.72
2022-11-24T15:59:05.308Z,2.38
2022-11-24T16:01:34.040Z,3.70
2022-11-24T16:04:01.578Z,4.65
2022-11-24T16:06:28.805Z,4.15
2022-11-24T16:08:56.649Z,3.47
2022-11-24T16:11:23.933Z,3.47
2022-11-24T16:13:54.068Z,2.70
2022-11-24T16:16:28.747Z,2.85
2022-11-24T16:19:02.063Z,2.97
2022-11-24T16:21:28.807Z,5.93
2022-11-24T16:24:03.880Z,3.50
2022-11-24T16:26:30.684Z,3.92
2022-11-24T16:28:57.620Z,3.63
2022-11-24T16:31:27.787Z,3.25
2022-11-24T16:33:54.525Z,3.40
2022-11-24T16:36:21.728Z,3.85
2022-11-24T16:38:51.954Z,3.15
2022-11-24T16:41:18.835Z,3.50
2022-11-24T16:43:46.205Z,2.90
2022-11-24T16:46:21.521Z,2.83
2022-11-24T16:48:51.690Z,3.63
2022-11-24T16:51:20.896Z,2.92
2022-11-24T16:53:50.567Z,3.47
2022-11-24T16:56:17.529Z,6.88
2022-11-24T16:58:44.252Z,3.50
2022-11-24T17:01:13.251Z,5.68
2022-11-24T17:03:46.710Z,4.45
2022-11-24T17:06:18.595Z,4.45
2022-11-24T17:08:46.495Z,4.28
2022-11-24T17:11:21.736Z,4.38
2022-11-24T17:13:49.240Z,4.95
2022-11-24T17:16:18.950Z,4.72
2022-11-24T17:18:49.449Z,4.68
2022-11-24T17:21:21.566Z,5.30
2022-11-24T17:23:55.501Z,4.35
2022-11-24T17:26:23.150Z,5.40
2022-11-24T17:28:49.844Z,4.75
2022-11-24T17:31:29.137Z,4.97
2022-11-24T17:33:57.386Z,5.30
2022-11-24T17:36:24.326Z,4.90
2022-11-24T17:38:51.858Z,4.70
2022-11-24T17:41:19.791Z,5.10
2022-11-24T17:43:55.775Z,4.90
2022-11-24T17:46:24.203Z,7.95
2022-11-24T17:48:51.231Z,5.07
2022-11-24T17:51:20.792Z,5.80
2022-11-24T17:53:55.523Z,4.85
2022-11-24T17:56:27.435Z,6.78
2022-11-24T17:58:56.393Z,6.57
2022-11-24T18:01:25.631Z,6.90
2022-11-24T18:03:53.853Z,6.20
2022-11-24T18:06:21.610Z,8.40
2022-11-24T18:08:48.210Z,7.00
2022-11-24T18:11:31.469Z,7.55
2022-11-24T18:14:01.855Z,9.98
2022-11-24T18:16:30.993Z,11.20
2022-11-24T18:19:08.811Z,11.43
2022-11-24T18:21:42.195Z,8.10
2022-11-24T18:24:10.462Z,11.30
2022-11-24T18:26:38.143Z,14.85
2022-11-24T18:29:05.025Z,14.32
2022-11-24T18:31:32.533Z,12.52
2022-11-24T18:33:59.319Z,10.88
2022-11-24T18:36:30.258Z,8.35
2022-11-24T18:39:00.740Z,9.10
2022-11-24T18:41:27.521Z,11.02
2022-11-24T18:43:54.341Z,11.00
2022-11-24T18:46:21.104Z,8.30
2022-11-24T18:48:48.021Z,9.50
2022-11-24T18:51:15.064Z,9.98
2022-11-24T18:53:46.665Z,9.07
2022-11-24T18:56:17.726Z,8.95
2022-11-24T19:01:19.100Z,9.98
2022-11-24T19:03:51.195Z,10.00
2022-11-24T19:06:19.643Z,12.00
2022-11-24T19:08:49.373Z,12.20
2022-11-24T19:11:23.703Z,11.73
2022-11-24T19:13:50.798Z,11.60
2022-11-24T19:16:19.489Z,10.70
2022-11-24T19:18:51.967Z,10.07
2022-11-24T19:21:20.917Z,9.80
2022-11-24T19:23:47.636Z,9.52
2022-11-24T19:26:14.521Z,10.00
2022-11-24T19:28:41.107Z,27.13
2022-11-24T19:31:11.552Z,10.25
2022-11-24T19:33:39.076Z,10.07
2022-11-24T19:36:19.205Z,10.27
2022-11-24T19:38:58.384Z,18.33
2022-11-24T19:41:28.666Z,13.15
2022-11-24T19:43:55.365Z,23.83
2022-11-24T19:46:26.539Z,16.63
2022-11-24T19:48:58.268Z,14.52
2022-11-24T19:51:28.103Z,9.55
2022-11-24T19:53:55.918Z,9.63
2022-11-24T19:56:30.822Z,9.55
2022-11-24T19:58:57.594Z,12.30
2022-11-24T20:01:35.610Z,9.30
2022-11-24T20:04:13.897Z,8.40
2022-11-24T20:06:48.303Z,8.90
2022-11-24T20:09:17.488Z,8.70
2022-11-24T20:11:44.721Z,9.85
2022-11-24T20:14:13.865Z,15.98
2022-11-24T20:16:40.844Z,10.73
2022-11-24T20:19:11.288Z,13.45
2022-11-24T20:21:39.067Z,9.32
2022-11-24T20:24:12.681Z,13.68
2022-11-24T20:26:44.689Z,10.77
2022-11-24T20:29:13.922Z,9.55
2022-11-24T20:31:44.047Z,11.57
2022-11-24T20:34:11.714Z,9.18
2022-11-24T20:36:40.760Z,12.13
2022-11-24T20:39:12.143Z,10.75
2022-11-24T20:41:40.206Z,10.77
2022-11-24T20:44:10.474Z,10.07
2022-11-24T20:46:39.411Z,9.93
2022-11-24T20:49:14.757Z,9.95
2022-11-24T20:51:44.274Z,10.85
2022-11-24T20:54:13.192Z,9.63
2022-11-24T20:56:43.563Z,10.32
2022-11-24T20:59:15.331Z,9.85
2022-11-24T21:01:47.029Z,12.18
2022-11-24T21:04:22.592Z,9.88
2022-11-24T21:06:49.471Z,10.85
2022-11-24T21:09:19.915Z,12.68
2022-11-24T21:11:47.564Z,9.93
2022-11-24T21:14:14.437Z,11.45
2022-11-24T21:16:42.386Z,9.35
2022-11-24T21:19:17.024Z,9.80
2022-11-24T21:21:44.680Z,9.40
2022-11-24T21:24:21.656Z,9.07
2022-11-24T21:26:49.220Z,9.30
2022-11-24T21:29:19.067Z,10.10
2022-11-24T21:31:45.556Z,8.85
2022-11-24T21:34:15.453Z,8.85
2022-11-24T21:36:45.368Z,10.75
2022-11-24T21:39:14.011Z,10.43
2022-11-24T21:41:44.072Z,11.95
2022-11-24T21:44:13.082Z,15.80
2022-11-24T21:46:48.186Z,19.40
2022-11-24T21:49:19.224Z,13.50
2022-11-24T21:51:45.702Z,10.75
2022-11-24T21:54:12.196Z,11.10
2022-11-24T21:56:38.676Z,10.10
2022-11-24T21:59:05.072Z,10.60
2022-11-24T22:01:31.637Z,9.90
2022-11-24T22:03:58.278Z,10.18
2022-11-24T22:06:24.722Z,10.13
2022-11-24T22:08:51.240Z,9.32
2022-11-24T22:11:20.896Z,12.98
2022-11-24T22:13:51.148Z,9.70
2022-11-24T22:16:20.188Z,9.02
2022-11-24T22:18:47.213Z,10.23
2022-11-24T22:21:16.341Z,10.35
2022-11-24T22:23:43.468Z,10.27
2022-11-24T22:26:18.127Z,10.98
2022-11-24T22:28:47.935Z,11.73
2022-11-24T22:31:20.133Z,12.32
2022-11-24T22:33:47.567Z,13.15
2022-11-24T22:36:15.807Z,13.02
2022-11-24T22:38:43.041Z,12.20
2022-11-24T22:41:12.269Z,12.80
2022-11-24T22:43:40.030Z,12.75
2022-11-24T22:46:18.084Z,12.40
2022-11-24T22:48:46.192Z,12.43
2022-11-24T22:51:21.058Z,12.85
2022-11-24T22:53:49.421Z,11.90
2022-11-24T22:56:17.066Z,12.63
2022-11-24T22:58:44.276Z,12.05
2022-11-24T23:01:22.024Z,11.65
2022-11-24T23:06:23.331Z,12.60
2022-11-24T23:08:51.266Z,10.88
2022-11-24T23:11:27.345Z,13.88
2022-11-24T23:14:00.580Z,11.13
2022-11-24T23:16:29.239Z,12.07
2022-11-24T23:18:56.088Z,11.10
2022-11-24T23:21:28.262Z,11.68
2022-11-24T23:23:55.361Z,11.90
2022-11-24T23:26:24.692Z,10.50
2022-11-24T23:28:51.822Z,11.20
2022-11-24T23:31:24.435Z,10.93
2022-11-24T23:33:51.479Z,12.52
2022-11-24T23:36:19.727Z,11.70
2022-11-24T23:38:47.291Z,11.27
2022-11-24T23:41:18.313Z,11.80
2022-11-24T23:43:44.964Z,10.68
2022-11-24T23:46:25.962Z,11.63
2022-11-24T23:48:57.040Z,11.75
2022-11-24T23:51:26.162Z,11.25
2022-11-24T23:53:53.323Z,13.05
2022-11-24T23:56:24.940Z,12.45
2022-11-24T23:58:51.588Z,11.23
